createdAt,value
2023-02-26T00:01:47.529Z,0.12
2023-02-26T00:04:16.073Z,0.14
2023-02-26T00:06:53.700Z,0.16
2023-02-26T00:09:24.860Z,0.14
2023-02-26T00:11:53.749Z,0.16
2023-02-26T00:14:22.415Z,0.18
2023-02-26T00:17:22.767Z,0.17
2023-02-26T00:19:51.409Z,0.14
2023-02-26T00:22:19.921Z,0.10
2023-02-26T00:24:48.216Z,0.06
2023-02-26T00:27:16.912Z,0.04
2023-02-26T00:29:45.864Z,0.05
2023-02-26T00:32:14.526Z,0.08
2023-02-26T00:34:43.634Z,0.13
2023-02-26T00:37:23.941Z,0.13
2023-02-26T00:39:59.905Z,0.11
2023-02-26T00:42:28.446Z,0.12
2023-02-26T00:44:56.953Z,0.14
2023-02-26T00:47:40.415Z,0.17
2023-02-26T00:50:18.129Z,0.16
2023-02-26T00:53:17.564Z,0.13
2023-02-26T00:55:45.897Z,0.13
2023-02-26T00:58:14.156Z,0.19
2023-02-26T01:00:42.451Z,0.24
2023-02-26T01:03:12.252Z,0.31
2023-02-26T01:05:40.862Z,0.39
2023-02-26T01:08:34.660Z,0.42
2023-02-26T01:11:03.215Z,0.35
2023-02-26T01:13:31.607Z,0.27
2023-02-26T01:16:08.455Z,0.21
2023-02-26T01:18:53.205Z,0.21
2023-02-26T01:21:37.541Z,0.24
2023-02-26T01:24:10.472Z,0.26
2023-02-26T01:26:38.615Z,0.29
2023-02-26T01:29:07.666Z,0.31
2023-02-26T01:32:03.508Z,0.31
2023-02-26T01:34:35.694Z,0.30
2023-02-26T01:37:31.669Z,0.31
2023-02-26T01:40:17.473Z,0.26
2023-02-26T01:42:49.735Z,0.13
2023-02-26T01:45:26.673Z,0.11
2023-02-26T01:48:05.837Z,0.09
2023-02-26T01:50:36.570Z,0.01
2023-02-26T01:53:24.469Z,0.04
2023-02-26T01:56:00.348Z,0.01
2023-02-26T01:58:33.821Z,-0.01
2023-02-26T02:01:02.526Z,-0.05
2023-02-26T02:03:34.438Z,-0.09
2023-02-26T02:06:15.947Z,-0.11
2023-02-26T02:08:45.732Z,-0.09
2023-02-26T02:11:15.317Z,-0.06
2023-02-26T02:14:08.822Z,0.03
2023-02-26T02:16:42.904Z,0.06
2023-02-26T02:19:41.425Z,0.09
2023-02-26T02:22:16.025Z,0.09
2023-02-26T02:25:04.425Z,0.06
2023-02-26T02:27:50.854Z,-0.01
2023-02-26T02:30:32.833Z,-0.06
2023-02-26T02:33:12.858Z,-0.08
2023-02-26T02:36:08.172Z,-0.10
2023-02-26T02:38:45.616Z,-0.10
2023-02-26T02:41:30.317Z,-0.06
2023-02-26T02:44:02.741Z,-0.09
2023-02-26T02:46:34.532Z,-0.09
2023-02-26T02:49:10.129Z,-0.11
2023-02-26T02:51:43.065Z,-0.11
2023-02-26T02:54:19.143Z,-0.15
2023-02-26T02:56:59.135Z,-0.18
2023-02-26T02:59:39.322Z,-0.24
2023-02-26T03:02:13.175Z,-0.26
2023-02-26T03:04:42.659Z,-0.23
2023-02-26T03:07:11.634Z,-0.20
2023-02-26T03:09:40.223Z,-0.19
2023-02-26T03:12:08.588Z,-0.19
2023-02-26T03:14:37.474Z,-0.14
2023-02-26T03:17:25.178Z,-0.17
2023-02-26T03:19:59.302Z,-0.18
2023-02-26T03:22:34.929Z,-0.16
2023-02-26T03:25:21.744Z,-0.19
2023-02-26T03:27:50.209Z,-0.22
2023-02-26T03:30:30.545Z,-0.22
2023-02-26T03:33:13.710Z,-0.25
2023-02-26T03:35:57.472Z,-0.22
2023-02-26T03:38:44.678Z,-0.21
2023-02-26T03:41:23.944Z,-0.20
2023-02-26T03:44:33.984Z,-0.17
2023-02-26T03:47:08.464Z,-0.14
2023-02-26T03:49:46.303Z,-0.12
2023-02-26T03:52:15.805Z,-0.14
2023-02-26T03:55:10.242Z,-0.17
2023-02-26T03:58:03.034Z,-0.17
2023-02-26T04:00:44.910Z,-0.14
2023-02-26T04:03:22.202Z,-0.08
2023-02-26T04:05:52.869Z,-0.06
2023-02-26T04:08:23.589Z,-0.01
2023-02-26T04:11:01.051Z,0.06
2023-02-26T04:13:29.589Z,0.07
2023-02-26T04:15:58.232Z,0.05
2023-02-26T04:18:26.659Z,0.03
2023-02-26T04:20:54.859Z,-0.07
2023-02-26T04:23:23.165Z,-0.07
2023-02-26T04:25:51.510Z,-0.07
2023-02-26T04:28:19.750Z,-0.05
2023-02-26T04:30:48.806Z,0.01
2023-02-26T04:33:17.509Z,0.06
2023-02-26T04:35:46.515Z,0.13
2023-02-26T04:38:15.149Z,0.19
2023-02-26T04:40:43.366Z,0.23
2023-02-26T04:43:12.742Z,0.18
2023-02-26T04:45:48.452Z,0.08
2023-02-26T04:48:17.567Z,0.02
2023-02-26T04:50:46.857Z,-0.02
2023-02-26T04:53:15.209Z,-0.04
2023-02-26T04:55:44.449Z,-0.05
2023-02-26T04:58:12.645Z,0.05
2023-02-26T05:00:41.213Z,0.05
2023-02-26T05:03:10.183Z,0.06
2023-02-26T05:05:38.435Z,0.08
2023-02-26T05:08:07.901Z,0.10
2023-02-26T05:10:36.754Z,0.07
2023-02-26T05:13:05.994Z,0.02
2023-02-26T05:15:35.469Z,0.03
2023-02-26T05:18:03.857Z,0.07
2023-02-26T05:20:32.098Z,0.11
2023-02-26T05:23:00.529Z,0.17
2023-02-26T05:25:28.956Z,0.18
2023-02-26T05:27:57.471Z,0.14
2023-02-26T05:30:25.826Z,0.08
2023-02-26T05:32:55.014Z,0.09
2023-02-26T05:35:23.250Z,0.09
2023-02-26T05:37:51.426Z,0.07
2023-02-26T05:40:19.686Z,0.09
2023-02-26T05:42:47.949Z,0.13
2023-02-26T05:45:16.285Z,0.09
2023-02-26T05:47:44.744Z,0.09
2023-02-26T05:50:13.353Z,0.13
2023-02-26T05:52:41.690Z,0.18
2023-02-26T05:55:10.525Z,0.28
2023-02-26T05:57:38.892Z,0.35
2023-02-26T06:00:08.667Z,0.31
2023-02-26T06:02:42.988Z,0.31
2023-02-26T06:05:12.125Z,0.28
2023-02-26T06:07:40.284Z,0.27
2023-02-26T06:10:09.529Z,0.33
2023-02-26T06:12:38.551Z,0.38
2023-02-26T06:15:07.879Z,0.39
2023-02-26T06:17:36.149Z,0.42
2023-02-26T06:20:05.693Z,0.47
2023-02-26T06:22:33.986Z,0.43
2023-02-26T06:25:02.351Z,0.41
2023-02-26T06:27:30.709Z,0.42
2023-02-26T06:29:58.918Z,0.39
2023-02-26T06:32:30.214Z,0.35
2023-02-26T06:34:58.866Z,0.31
2023-02-26T06:37:27.606Z,0.36
2023-02-26T06:39:55.830Z,0.42
2023-02-26T06:42:24.430Z,0.49
2023-02-26T06:44:52.606Z,0.57
2023-02-26T06:47:20.912Z,0.56
2023-02-26T06:49:49.379Z,0.58
2023-02-26T06:52:17.615Z,0.56
2023-02-26T06:54:46.077Z,0.51
2023-02-26T06:57:14.412Z,0.54
2023-02-26T06:59:42.630Z,0.61
2023-02-26T07:02:19.624Z,0.67
2023-02-26T07:04:47.848Z,0.76
2023-02-26T07:07:16.178Z,0.86
2023-02-26T07:09:45.954Z,0.96
2023-02-26T07:12:14.324Z,1.06
2023-02-26T07:14:43.267Z,1.13
2023-02-26T07:17:20.436Z,1.18
2023-02-26T07:19:52.823Z,1.18
2023-02-26T07:22:22.187Z,1.12
2023-02-26T07:24:51.399Z,1.10
2023-02-26T07:27:19.835Z,1.04
2023-02-26T07:29:48.100Z,1.06
2023-02-26T07:32:16.577Z,1.11
2023-02-26T07:34:44.853Z,1.17
2023-02-26T07:37:13.160Z,1.24
2023-02-26T07:39:41.820Z,1.25
2023-02-26T07:42:10.574Z,1.19
2023-02-26T07:44:40.826Z,1.13
2023-02-26T07:47:09.710Z,1.03
2023-02-26T07:49:37.974Z,0.95
2023-02-26T07:52:08.274Z,0.93
2023-02-26T07:54:37.429Z,0.91
2023-02-26T07:57:06.264Z,0.90
2023-02-26T07:59:34.549Z,0.88
2023-02-26T08:02:02.988Z,0.86
2023-02-26T08:04:33.190Z,0.81
2023-02-26T08:07:01.905Z,0.72
2023-02-26T08:09:30.916Z,0.63
2023-02-26T08:11:59.309Z,0.56
2023-02-26T08:14:27.630Z,0.49
2023-02-26T08:16:56.043Z,0.46
2023-02-26T08:19:24.272Z,0.51
2023-02-26T08:21:55.428Z,0.57
2023-02-26T08:24:23.730Z,0.60
2023-02-26T08:26:52.163Z,0.64
2023-02-26T08:29:20.700Z,0.71
2023-02-26T08:31:49.355Z,0.75
2023-02-26T08:34:18.632Z,0.78
2023-02-26T08:36:46.976Z,0.73
2023-02-26T08:39:15.296Z,0.67
2023-02-26T08:41:43.620Z,0.69
2023-02-26T08:44:12.017Z,0.76
2023-02-26T08:46:40.429Z,0.82
2023-02-26T08:49:09.108Z,0.84
2023-02-26T08:51:37.452Z,0.86
2023-02-26T08:54:05.794Z,0.89
2023-02-26T08:56:34.154Z,0.94
2023-02-26T08:59:02.421Z,1.06
2023-02-26T09:01:31.025Z,1.10
2023-02-26T09:03:59.305Z,1.17
2023-02-26T09:06:28.073Z,1.33
2023-02-26T09:08:57.044Z,1.51
2023-02-26T09:11:25.624Z,1.59
2023-02-26T09:13:54.074Z,1.66
2023-02-26T09:16:22.456Z,1.66
2023-02-26T09:18:51.004Z,1.64
2023-02-26T09:21:19.362Z,1.65
2023-02-26T09:23:48.281Z,1.66
2023-02-26T09:26:16.639Z,1.76
2023-02-26T09:28:44.958Z,1.96
2023-02-26T09:31:13.431Z,2.14
2023-02-26T09:33:41.898Z,2.31
2023-02-26T09:36:10.357Z,2.48
2023-02-26T09:38:38.643Z,2.65
2023-02-26T09:41:16.238Z,2.80
2023-02-26T09:43:44.467Z,2.98
2023-02-26T09:46:32.526Z,3.02
2023-02-26T09:49:12.552Z,2.99
2023-02-26T09:51:42.451Z,3.02
2023-02-26T09:54:23.187Z,3.11
2023-02-26T09:56:59.268Z,3.13
2023-02-26T09:59:34.794Z,3.07
2023-02-26T10:02:14.627Z,3.02
2023-02-26T10:05:04.671Z,3.15
2023-02-26T10:07:50.762Z,3.30
2023-02-26T10:10:55.014Z,3.38
2023-02-26T10:13:49.018Z,3.45
2023-02-26T10:16:28.671Z,3.32
2023-02-26T10:19:33.308Z,3.27
2023-02-26T10:22:15.924Z,3.32
2023-02-26T10:25:02.259Z,3.26
2023-02-26T10:27:48.428Z,3.27
2023-02-26T10:30:29.601Z,3.18
2023-02-26T10:33:35.494Z,3.14
2023-02-26T10:36:25.564Z,3.01
2023-02-26T10:39:04.168Z,2.79
2023-02-26T10:41:37.210Z,2.69
2023-02-26T10:44:24.246Z,2.71
2023-02-26T10:46:55.607Z,2.77
2023-02-26T10:49:26.942Z,2.82
2023-02-26T10:51:56.797Z,2.82
2023-02-26T10:54:39.838Z,2.80
2023-02-26T10:57:14.963Z,2.82
2023-02-26T10:59:43.213Z,2.78
2023-02-26T11:02:46.211Z,2.75
2023-02-26T11:05:22.564Z,2.71
2023-02-26T11:07:56.046Z,2.65
2023-02-26T11:10:28.754Z,2.63
2023-02-26T11:12:59.012Z,2.48
2023-02-26T11:15:28.268Z,2.47
2023-02-26T11:18:01.776Z,2.53
2023-02-26T11:20:42.945Z,2.64
2023-02-26T11:23:18.710Z,2.69
2023-02-26T11:25:54.562Z,2.86
2023-02-26T11:28:30.589Z,3.02
2023-02-26T11:31:02.298Z,3.14
2023-02-26T11:33:44.606Z,3.22
2023-02-26T11:36:16.755Z,3.24
2023-02-26T11:38:46.985Z,3.17
2023-02-26T11:41:17.319Z,2.99
2023-02-26T11:44:01.591Z,2.87
2023-02-26T11:46:30.243Z,2.77
2023-02-26T11:49:02.103Z,2.69
2023-02-26T11:51:30.825Z,2.62
2023-02-26T11:54:01.695Z,2.57
2023-02-26T11:56:40.513Z,2.52
2023-02-26T11:59:21.373Z,2.50
2023-02-26T12:01:51.696Z,2.45
2023-02-26T12:04:27.653Z,2.37
2023-02-26T12:06:56.675Z,2.11
2023-02-26T12:09:27.413Z,1.89
2023-02-26T12:12:06.160Z,1.80
2023-02-26T12:14:43.915Z,1.75
2023-02-26T12:17:18.065Z,1.76
2023-02-26T12:19:55.236Z,1.73
2023-02-26T12:22:42.186Z,1.68
2023-02-26T12:25:26.540Z,1.74
2023-02-26T12:28:03.545Z,1.82
2023-02-26T12:31:09.198Z,1.87
2023-02-26T12:34:01.499Z,1.91
2023-02-26T12:36:48.776Z,1.99
2023-02-26T12:39:25.865Z,1.96
2023-02-26T12:42:13.678Z,1.95
2023-02-26T12:44:48.100Z,1.97
2023-02-26T12:47:44.585Z,1.95
2023-02-26T12:50:43.778Z,1.89
2023-02-26T12:53:23.955Z,1.84
2023-02-26T12:56:07.466Z,1.79
2023-02-26T12:59:03.815Z,1.74
2023-02-26T13:02:01.380Z,1.73
2023-02-26T13:04:42.575Z,1.72
2023-02-26T13:07:32.742Z,1.72
2023-02-26T13:10:22.226Z,1.72
2023-02-26T13:13:09.027Z,1.70
2023-02-26T13:15:37.230Z,1.63
2023-02-26T13:18:05.381Z,1.52
2023-02-26T13:20:36.435Z,1.42
2023-02-26T13:23:12.168Z,1.39
2023-02-26T13:26:02.502Z,1.33
2023-02-26T13:28:52.293Z,1.24
2023-02-26T13:31:27.720Z,1.19
2023-02-26T13:34:00.353Z,1.19
2023-02-26T13:36:29.547Z,1.16
2023-02-26T13:39:08.660Z,1.13
2023-02-26T13:41:45.725Z,1.08
2023-02-26T13:44:36.671Z,1.07
2023-02-26T13:47:43.028Z,1.06
2023-02-26T13:50:38.000Z,1.08
2023-02-26T13:53:41.149Z,0.98
2023-02-26T13:56:32.494Z,0.95
2023-02-26T13:59:12.475Z,0.87
2023-02-26T14:01:57.731Z,0.81
2023-02-26T14:04:30.258Z,0.78
2023-02-26T14:07:00.201Z,0.74
2023-02-26T14:09:28.663Z,0.78
2023-02-26T14:12:22.993Z,0.81
2023-02-26T14:15:02.959Z,0.73
2023-02-26T14:17:39.837Z,0.73
2023-02-26T14:20:22.409Z,0.76
2023-02-26T14:22:58.633Z,0.82
2023-02-26T14:25:35.068Z,0.81
2023-02-26T14:28:43.289Z,0.76
2023-02-26T14:31:11.678Z,0.77
2023-02-26T14:33:59.910Z,0.77
2023-02-26T14:36:46.586Z,0.76
2023-02-26T14:39:47.069Z,0.72
2023-02-26T14:42:21.399Z,0.70
2023-02-26T14:45:16.846Z,0.71
2023-02-26T14:47:47.215Z,0.69
2023-02-26T14:50:21.539Z,0.66
2023-02-26T14:53:27.726Z,0.62
2023-02-26T14:55:55.861Z,0.58
2023-02-26T14:58:43.192Z,0.57
2023-02-26T15:01:30.113Z,0.55
2023-02-26T15:04:21.268Z,0.52
2023-02-26T15:06:58.702Z,0.49
2023-02-26T15:09:33.527Z,0.45
2023-02-26T15:12:01.825Z,0.45
2023-02-26T15:14:44.969Z,0.45
2023-02-26T15:17:22.117Z,0.46
2023-02-26T15:20:17.946Z,0.48
2023-02-26T15:22:59.077Z,0.45
2023-02-26T15:25:41.071Z,0.45
2023-02-26T15:28:40.428Z,0.44
2023-02-26T15:31:13.445Z,0.41
2023-02-26T15:33:42.481Z,0.36
2023-02-26T15:36:18.812Z,0.31
2023-02-26T15:38:50.132Z,0.32
2023-02-26T15:41:18.773Z,0.31
2023-02-26T15:43:55.334Z,0.34
2023-02-26T15:46:29.855Z,0.37
2023-02-26T15:49:05.801Z,0.39
2023-02-26T15:51:34.863Z,0.39
2023-02-26T15:54:03.714Z,0.38
2023-02-26T15:56:37.939Z,0.40
2023-02-26T15:59:17.364Z,0.42
2023-02-26T16:01:46.023Z,0.42
2023-02-26T16:04:19.969Z,0.39
2023-02-26T16:06:53.051Z,0.38
2023-02-26T16:09:29.438Z,0.37
2023-02-26T16:12:06.146Z,0.35
2023-02-26T16:14:40.010Z,0.32
2023-02-26T16:17:17.070Z,0.33
2023-02-26T16:19:48.439Z,0.31
2023-02-26T16:22:26.040Z,0.34
2023-02-26T16:25:00.617Z,0.38
2023-02-26T16:27:31.515Z,0.37
2023-02-26T16:30:01.915Z,0.38
2023-02-26T16:32:34.137Z,0.38
2023-02-26T16:35:12.675Z,0.38
2023-02-26T16:37:45.433Z,0.38
2023-02-26T16:40:29.059Z,0.34
2023-02-26T16:43:03.519Z,0.36
2023-02-26T16:45:38.067Z,0.39
2023-02-26T16:48:23.404Z,0.39
2023-02-26T16:51:07.540Z,0.31
2023-02-26T16:53:45.271Z,0.30
2023-02-26T16:56:18.302Z,0.31
2023-02-26T16:58:53.927Z,0.28
2023-02-26T17:01:23.465Z,0.28
2023-02-26T17:04:00.264Z,0.30
2023-02-26T17:06:32.512Z,0.30
2023-02-26T17:09:02.636Z,0.28
2023-02-26T17:11:35.632Z,0.27
2023-02-26T17:14:12.932Z,0.28
2023-02-26T17:16:41.444Z,0.31
2023-02-26T17:19:09.736Z,0.34
2023-02-26T17:21:44.700Z,0.35
2023-02-26T17:24:47.603Z,0.33
2023-02-26T17:27:23.151Z,0.31
2023-02-26T17:29:52.079Z,0.32
2023-02-26T17:32:23.661Z,0.36
2023-02-26T17:34:52.030Z,0.42
2023-02-26T17:37:21.477Z,0.46
2023-02-26T17:39:49.734Z,0.46
2023-02-26T17:42:21.567Z,0.41
2023-02-26T17:44:50.743Z,0.29
2023-02-26T17:47:24.151Z,0.25
2023-02-26T17:49:54.144Z,0.24
2023-02-26T17:52:22.422Z,0.26
2023-02-26T17:54:50.772Z,0.34
2023-02-26T17:57:21.541Z,0.40
2023-02-26T17:59:53.097Z,0.43
2023-02-26T18:02:25.538Z,0.42
2023-02-26T18:04:54.420Z,0.39
2023-02-26T18:07:24.591Z,0.34
2023-02-26T18:09:53.003Z,0.31
2023-02-26T18:12:22.369Z,0.26
2023-02-26T18:14:50.921Z,0.25
2023-02-26T18:17:24.304Z,0.28
2023-02-26T18:19:53.033Z,0.26
2023-02-26T18:22:25.502Z,0.23
2023-02-26T18:24:55.545Z,0.20
2023-02-26T18:27:26.189Z,0.24
2023-02-26T18:29:54.709Z,0.26
2023-02-26T18:32:25.267Z,0.26
2023-02-26T18:34:53.946Z,0.23
2023-02-26T18:37:26.140Z,0.21
2023-02-26T18:39:55.934Z,0.23
2023-02-26T18:42:27.111Z,0.24
2023-02-26T18:44:55.869Z,0.33
2023-02-26T18:47:26.323Z,0.42
2023-02-26T18:49:54.591Z,0.46
2023-02-26T18:52:23.307Z,0.47
2023-02-26T18:54:51.781Z,0.45
2023-02-26T18:57:20.030Z,0.41
2023-02-26T18:59:48.810Z,0.34
2023-02-26T19:02:17.124Z,0.31
2023-02-26T19:04:47.190Z,0.21
2023-02-26T19:07:16.267Z,0.21
2023-02-26T19:09:44.537Z,0.22
2023-02-26T19:12:19.659Z,0.25
2023-02-26T19:14:49.150Z,0.23
2023-02-26T19:17:17.397Z,0.23
2023-02-26T19:19:45.684Z,0.18
2023-02-26T19:22:14.699Z,0.08
2023-02-26T19:24:44.088Z,0.04
2023-02-26T19:27:13.405Z,0.05
2023-02-26T19:29:42.626Z,0.03
2023-02-26T19:32:11.062Z,0.03
2023-02-26T19:34:39.510Z,0.05
2023-02-26T19:37:08.026Z,0.07
2023-02-26T19:39:37.144Z,0.05
2023-02-26T19:42:05.807Z,0.07
2023-02-26T19:44:34.124Z,0.09
2023-02-26T19:47:02.750Z,0.07
2023-02-26T19:49:31.137Z,0.08
2023-02-26T19:51:59.275Z,0.13
2023-02-26T19:54:27.562Z,0.14
2023-02-26T19:56:55.820Z,0.22
2023-02-26T19:59:24.093Z,0.27
2023-02-26T20:01:52.431Z,0.27
2023-02-26T20:04:20.618Z,0.29
2023-02-26T20:06:48.933Z,0.21
2023-02-26T20:09:19.347Z,0.17
2023-02-26T20:11:47.684Z,0.16
2023-02-26T20:14:16.257Z,0.13
2023-02-26T20:16:44.530Z,0.16
2023-02-26T20:19:13.040Z,0.20
2023-02-26T20:21:41.251Z,0.26
2023-02-26T20:24:10.647Z,0.28
2023-02-26T20:26:38.927Z,0.22
2023-02-26T20:29:07.238Z,0.15
2023-02-26T20:31:35.632Z,0.12
2023-02-26T20:34:04.173Z,0.12
2023-02-26T20:36:32.517Z,0.12
2023-02-26T20:39:02.620Z,0.15
2023-02-26T20:41:30.933Z,0.18
2023-02-26T20:43:59.222Z,0.23
2023-02-26T20:46:27.488Z,0.29
2023-02-26T20:48:55.708Z,0.34
2023-02-26T20:51:23.973Z,0.38
2023-02-26T20:53:52.348Z,0.41
2023-02-26T20:56:20.713Z,0.40
2023-02-26T20:58:48.987Z,0.37
2023-02-26T21:01:17.179Z,0.34
2023-02-26T21:03:45.365Z,0.33
2023-02-26T21:06:13.644Z,0.31
2023-02-26T21:08:43.888Z,0.31
2023-02-26T21:11:12.193Z,0.31
2023-02-26T21:13:40.391Z,0.31
2023-02-26T21:16:08.938Z,0.27
2023-02-26T21:18:37.159Z,0.18
2023-02-26T21:21:05.622Z,0.12
2023-02-26T21:23:33.943Z,0.08
2023-02-26T21:26:02.172Z,0.05
2023-02-26T21:28:30.427Z,0.03
2023-02-26T21:30:58.990Z,0.03
2023-02-26T21:33:27.438Z,0.05
2023-02-26T21:35:55.716Z,0.10
2023-02-26T21:38:23.970Z,0.14
2023-02-26T21:40:54.516Z,0.18
2023-02-26T21:43:22.735Z,0.16
2023-02-26T21:45:51.045Z,0.10
2023-02-26T21:48:19.312Z,0.09
2023-02-26T21:50:48.130Z,0.09
2023-02-26T21:53:16.444Z,0.11
2023-02-26T21:55:44.655Z,0.11
2023-02-26T21:58:12.898Z,0.14
2023-02-26T22:00:41.859Z,0.12
2023-02-26T22:03:11.500Z,0.07
2023-02-26T22:05:39.816Z,0.01
2023-02-26T22:08:08.101Z,-0.11
2023-02-26T22:10:36.369Z,-0.13
2023-02-26T22:13:04.679Z,-0.10
2023-02-26T22:15:32.846Z,-0.05
2023-02-26T22:18:01.100Z,-0.02
2023-02-26T22:20:30.436Z,0.00
2023-02-26T22:22:59.135Z,0.03
2023-02-26T22:25:27.365Z,0.05
2023-02-26T22:27:55.666Z,0.03
2023-02-26T22:30:25.416Z,0.00
2023-02-26T22:32:53.722Z,-0.06
2023-02-26T22:35:22.115Z,-0.10
2023-02-26T22:37:50.388Z,-0.10
2023-02-26T22:40:18.937Z,-0.11
2023-02-26T22:42:47.242Z,-0.08
2023-02-26T22:45:17.704Z,-0.05
2023-02-26T22:47:48.078Z,-0.04
2023-02-26T22:50:17.008Z,-0.07
2023-02-26T22:52:45.852Z,-0.11
2023-02-26T22:55:14.164Z,-0.16
2023-02-26T22:57:42.503Z,-0.21
2023-02-26T23:00:18.799Z,-0.21
2023-02-26T23:02:48.911Z,-0.22
2023-02-26T23:05:19.374Z,-0.21
2023-02-26T23:07:47.594Z,-0.17
2023-02-26T23:10:19.397Z,-0.17
2023-02-26T23:12:47.921Z,-0.20
2023-02-26T23:15:16.536Z,-0.25
2023-02-26T23:17:44.838Z,-0.28
2023-02-26T23:20:14.919Z,-0.27
2023-02-26T23:22:43.830Z,-0.24
2023-02-26T23:25:12.654Z,-0.24
2023-02-26T23:27:41.079Z,-0.24
2023-02-26T23:30:10.471Z,-0.24
2023-02-26T23:32:38.907Z,-0.24
2023-02-26T23:35:07.731Z,-0.25
2023-02-26T23:37:36.409Z,-0.23
2023-02-26T23:40:05.810Z,-0.24
2023-02-26T23:42:34.378Z,-0.26
2023-02-26T23:45:02.793Z,-0.26
2023-02-26T23:47:31.068Z,-0.25
2023-02-26T23:49:59.306Z,-0.17
2023-02-26T23:52:27.555Z,-0.16
2023-02-26T23:54:56.880Z,-0.15
2023-02-26T23:57:25.662Z,-0.14
2023-02-26T23:59:53.989Z,-0.16
